Time;durP1;ratioP1;P1;durP2;ratioP2;P2;SDS_P1;SDS_P2;PMS_P1;PMS_P2;Temp;Humidity;BMP_temperature;BMP_pressure;BME280_temperature;BME280_humidity;BME280_pressure;Samples;Min_cycle;Max_cycle;Signal;HPM_P1;HPM_P2
2023/06/10 00:01:36;;;;;;;;;;;21.40;99.90;;;;;;5041944;28;20368;-75
2023/06/10 00:04:04;;;;;;;;;;;21.30;99.90;;;;;;5050385;28;19921;-75
2023/06/10 00:06:35;;;;;;;;;;;21.30;99.90;;;;;;5041803;28;19920;-75
2023/06/10 00:09:04;;;;;;;;;;;21.30;99.90;;;;;;5032727;28;20051;-75
2023/06/10 00:11:31;;;;;;;;;;;21.30;99.90;;;;;;5034914;28;19925;-75
2023/06/10 00:13:58;;;;;;;;;;;21.30;99.90;;;;;;5037629;28;19921;-75
2023/06/10 00:16:26;;;;;;;;;;;21.20;99.90;;;;;;5044592;28;19925;-75
2023/06/10 00:18:55;;;;;;;;;;;21.20;99.90;;;;;;5039792;28;19920;-75
2023/06/10 00:21:22;;;;;;;;;;;21.20;99.90;;;;;;5039366;28;19921;-75
2023/06/10 00:23:49;;;;;;;;;;;21.10;99.90;;;;;;5044020;28;19945;-75
2023/06/10 00:26:16;;;;;;;;;;;21.10;99.90;;;;;;5037665;28;19927;-74
2023/06/10 00:28:45;;;;;;;;;;;21.10;99.90;;;;;;5044440;28;19920;-74
2023/06/10 00:31:12;;;;;;;;;;;21.10;99.90;;;;;;5055657;28;20004;-77
2023/06/10 00:33:41;;;;;;;;;;;21.10;99.90;;;;;;5045210;28;19921;-74
2023/06/10 00:36:07;;;;;;;;;;;21.10;99.90;;;;;;5040116;28;19921;-74
2023/06/10 00:38:34;;;;;;;;;;;21.10;99.90;;;;;;5040064;28;19920;-75
2023/06/10 00:41:02;;;;;;;;;;;21.10;99.90;;;;;;5040567;28;19964;-74
2023/06/10 00:43:29;;;;;;;;;;;21.00;99.90;;;;;;5033641;28;19921;-74
2023/06/10 00:45:56;;;;;;;;;;;21.00;99.90;;;;;;5041792;28;19921;-74
2023/06/10 00:48:23;;;;;;;;;;;20.90;99.90;;;;;;5041832;28;19921;-74
2023/06/10 00:50:51;;;;;;;;;;;20.90;99.90;;;;;;5043967;28;19925;-73
2023/06/10 00:53:18;;;;;;;;;;;20.90;99.90;;;;;;5052806;28;20265;-74
2023/06/10 00:55:45;;;;;;;;;;;20.90;99.90;;;;;;5040853;28;19986;-73
2023/06/10 00:58:12;;;;;;;;;;;20.90;99.90;;;;;;5040497;28;19928;-74
2023/06/10 01:00:39;;;;;;;;;;;20.90;99.90;;;;;;5036040;28;19921;-74
2023/06/10 01:03:07;;;;;;;;;;;20.90;99.90;;;;;;5041712;28;19921;-73
2023/06/10 01:05:34;;;;;;;;;;;20.80;99.90;;;;;;5032388;28;19952;-74
2023/06/10 01:08:07;;;;;;;;;;;20.80;99.90;;;;;;5058228;28;19927;-74
2023/06/10 01:10:36;;;;;;;;;;;20.70;99.90;;;;;;5038197;28;20362;-74
2023/06/10 01:13:04;;;;;;;;;;;20.70;99.90;;;;;;5036824;28;20380;-74
2023/06/10 01:15:31;;;;;;;;;;;20.70;99.90;;;;;;5042293;28;19925;-74
2023/06/10 01:17:58;;;;;;;;;;;20.60;99.90;;;;;;5037758;28;19960;-73
2023/06/10 01:20:26;;;;;;;;;;;20.60;99.90;;;;;;5059322;28;19971;-73
2023/06/10 01:22:55;;;;;;;;;;;20.60;99.90;;;;;;5054616;28;19927;-74
2023/06/10 01:25:27;;;;;;;;;;;20.60;99.90;;;;;;5033764;28;20326;-73
2023/06/10 01:27:55;;;;;;;;;;;20.60;99.90;;;;;;5059337;28;20295;-73
2023/06/10 01:30:25;;;;;;;;;;;20.60;99.90;;;;;;5041598;28;19921;-74
2023/06/10 01:32:53;;;;;;;;;;;20.50;99.90;;;;;;5045323;28;20015;-74
2023/06/10 01:35:22;;;;;;;;;;;20.50;99.90;;;;;;5043176;28;19983;-73
2023/06/10 01:37:49;;;;;;;;;;;20.40;99.90;;;;;;5044211;28;19921;-74
2023/06/10 01:40:18;;;;;;;;;;;20.40;99.90;;;;;;5040178;28;19920;-74
2023/06/10 01:42:45;;;;;;;;;;;20.30;99.90;;;;;;5038266;28;19921;-74
2023/06/10 01:45:13;;;;;;;;;;;20.30;99.90;;;;;;5034744;28;19921;-74
2023/06/10 01:47:41;;;;;;;;;;;20.30;99.90;;;;;;5038437;28;19925;-74
2023/06/10 01:50:08;;;;;;;;;;;20.20;99.90;;;;;;5041020;28;19920;-73
2023/06/10 01:52:35;;;;;;;;;;;20.20;99.90;;;;;;5039112;28;19924;-74
2023/06/10 01:55:02;;;;;;;;;;;20.20;99.90;;;;;;5060123;28;19920;-74
2023/06/10 01:57:31;;;;;;;;;;;20.10;99.90;;;;;;5040802;28;19921;-73
2023/06/10 01:59:57;;;;;;;;;;;20.10;99.90;;;;;;5056252;28;19921;-74
2023/06/10 02:02:25;;;;;;;;;;;20.00;99.90;;;;;;5043823;28;19928;-74
2023/06/10 02:04:51;;;;;;;;;;;19.90;99.90;;;;;;5058806;28;20026;-74
2023/06/10 02:07:21;;;;;;;;;;;19.80;99.90;;;;;;5034817;28;19929;-74
2023/06/10 02:09:48;;;;;;;;;;;19.80;99.90;;;;;;5039072;28;19921;-73
2023/06/10 02:12:14;;;;;;;;;;;19.80;99.90;;;;;;5048160;28;20272;-73
2023/06/10 02:14:43;;;;;;;;;;;19.70;99.90;;;;;;5031736;28;19932;-74
2023/06/10 02:17:14;;;;;;;;;;;19.70;99.90;;;;;;5041890;28;19921;-73
2023/06/10 02:19:43;;;;;;;;;;;19.60;99.90;;;;;;5061097;28;19921;-74
2023/06/10 02:22:10;;;;;;;;;;;19.50;99.90;;;;;;5033900;28;19928;-74
2023/06/10 02:24:37;;;;;;;;;;;19.50;99.90;;;;;;5028707;28;19921;-74
2023/06/10 02:27:06;;;;;;;;;;;19.30;99.90;;;;;;5042781;28;19948;-74
2023/06/10 02:29:34;;;;;;;;;;;19.30;99.90;;;;;;5039067;28;20004;-73
2023/06/10 02:32:02;;;;;;;;;;;19.20;99.90;;;;;;5035595;28;19927;-74
2023/06/10 02:34:29;;;;;;;;;;;19.10;99.90;;;;;;5039176;28;20431;-74
2023/06/10 02:36:57;;;;;;;;;;;19.00;99.90;;;;;;5030786;28;19921;-74
2023/06/10 02:39:25;;;;;;;;;;;19.00;99.90;;;;;;5037771;28;20016;-74
2023/06/10 02:41:52;;;;;;;;;;;18.90;99.90;;;;;;5039873;28;19971;-74
2023/06/10 02:44:20;;;;;;;;;;;18.80;99.90;;;;;;5041978;28;20003;-74
2023/06/10 02:46:47;;;;;;;;;;;18.80;99.90;;;;;;5036988;28;19928;-73
2023/06/10 02:49:15;;;;;;;;;;;18.80;99.90;;;;;;5039390;28;19921;-74
2023/06/10 02:51:43;;;;;;;;;;;18.80;99.90;;;;;;5042386;28;19925;-74
2023/06/10 02:54:09;;;;;;;;;;;18.80;99.90;;;;;;5039949;28;19927;-73
2023/06/10 02:56:41;;;;;;;;;;;18.80;99.90;;;;;;5037341;28;19928;-74
2023/06/10 02:59:10;;;;;;;;;;;18.70;99.90;;;;;;5034037;28;19975;-74
2023/06/10 03:01:37;;;;;;;;;;;18.70;99.90;;;;;;5025097;28;19960;-73
2023/06/10 03:04:08;;;;;;;;;;;18.60;99.90;;;;;;5037689;28;19928;-74
2023/06/10 03:06:38;;;;;;;;;;;18.60;99.90;;;;;;5038733;28;20363;-74
2023/06/10 03:09:15;;;;;;;;;;;18.60;99.90;;;;;;5040691;28;20011;-73
2023/06/10 03:11:44;;;;;;;;;;;18.60;99.90;;;;;;5042038;28;20284;-74
2023/06/10 03:14:11;;;;;;;;;;;18.50;99.90;;;;;;5034725;28;19921;-75
2023/06/10 03:16:40;;;;;;;;;;;18.50;99.90;;;;;;5034250;28;20263;-73
2023/06/10 03:19:08;;;;;;;;;;;18.50;99.90;;;;;;5042085;28;19921;-73
2023/06/10 03:21:38;;;;;;;;;;;18.50;99.90;;;;;;5045082;28;20295;-73
2023/06/10 03:24:06;;;;;;;;;;;18.40;99.90;;;;;;5033182;28;19928;-74
2023/06/10 03:26:35;;;;;;;;;;;18.30;99.90;;;;;;5039703;28;20371;-74
2023/06/10 03:29:03;;;;;;;;;;;18.20;99.90;;;;;;5032065;28;19928;-73
2023/06/10 03:31:30;;;;;;;;;;;18.20;99.90;;;;;;5045971;28;19921;-73
2023/06/10 03:33:58;;;;;;;;;;;18.20;99.90;;;;;;5032458;28;20384;-73
2023/06/10 03:36:29;;;;;;;;;;;18.10;99.90;;;;;;5044523;28;19925;-74
2023/06/10 03:38:58;;;;;;;;;;;18.10;99.90;;;;;;5039658;28;19961;-74
2023/06/10 03:41:26;;;;;;;;;;;18.00;99.90;;;;;;5041126;28;19961;-74
2023/06/10 03:43:55;;;;;;;;;;;18.00;99.90;;;;;;5042206;28;20403;-73
2023/06/10 03:46:22;;;;;;;;;;;18.10;99.90;;;;;;5042852;28;19925;-74
2023/06/10 03:48:49;;;;;;;;;;;18.00;99.90;;;;;;5038852;28;19925;-73
2023/06/10 03:51:16;;;;;;;;;;;18.00;99.90;;;;;;5033017;28;19921;-74
2023/06/10 03:53:43;;;;;;;;;;;18.00;99.90;;;;;;5045741;28;19925;-74
2023/06/10 03:56:11;;;;;;;;;;;18.00;99.90;;;;;;5037762;28;19929;-74
2023/06/10 03:58:39;;;;;;;;;;;18.00;99.90;;;;;;5024347;28;19925;-74
2023/06/10 04:01:07;;;;;;;;;;;18.70;99.90;;;;;;5039479;28;20000;-73
2023/06/10 04:03:35;;;;;;;;;;;18.00;99.90;;;;;;5033648;28;20387;-74
2023/06/10 04:06:02;;;;;;;;;;;17.40;99.90;;;;;;5044369;28;19920;-73
2023/06/10 04:08:29;;;;;;;;;;;18.10;99.90;;;;;;5041124;28;19944;-73
2023/06/10 04:10:56;;;;;;;;;;;17.90;99.90;;;;;;5045246;28;19921;-73
2023/06/10 04:13:24;;;;;;;;;;;17.70;99.90;;;;;;5048213;28;19924;-73
2023/06/10 04:15:55;;;;;;;;;;;17.80;99.90;;;;;;5038834;28;19921;-74
2023/06/10 04:18:22;;;;;;;;;;;17.80;99.90;;;;;;5040056;28;19921;-73
2023/06/10 04:20:50;;;;;;;;;;;17.90;99.90;;;;;;5048530;28;19921;-74
2023/06/10 04:23:18;;;;;;;;;;;17.90;99.90;;;;;;5035746;28;19927;-73
2023/06/10 04:25:46;;;;;;;;;;;17.90;99.90;;;;;;5043711;28;20295;-74
2023/06/10 04:28:13;;;;;;;;;;;17.90;99.90;;;;;;5046831;28;20361;-73
2023/06/10 04:30:44;;;;;;;;;;;17.80;99.90;;;;;;5040231;28;19923;-73
2023/06/10 04:33:12;;;;;;;;;;;17.90;99.90;;;;;;5044264;28;19921;-74
2023/06/10 04:35:40;;;;;;;;;;;17.90;99.90;;;;;;5044048;28;19921;-74
2023/06/10 04:38:09;;;;;;;;;;;18.00;99.90;;;;;;5037423;28;20008;-73
2023/06/10 04:40:36;;;;;;;;;;;17.70;99.90;;;;;;5056119;28;20301;-74
2023/06/10 04:43:03;;;;;;;;;;;18.20;99.90;;;;;;5032915;28;20322;-72
2023/06/10 04:45:31;;;;;;;;;;;18.30;99.90;;;;;;5032535;28;19921;-74
2023/06/10 04:48:00;;;;;;;;;;;18.40;99.90;;;;;;5037526;28;20273;-74
2023/06/10 04:50:27;;;;;;;;;;;18.40;99.90;;;;;;5034146;28;19924;-73
2023/06/10 04:52:56;;;;;;;;;;;18.50;99.90;;;;;;5037091;28;19928;-74
2023/06/10 04:55:23;;;;;;;;;;;18.60;99.90;;;;;;5033759;28;19975;-73
2023/06/10 04:57:51;;;;;;;;;;;18.60;99.90;;;;;;5042190;28;19975;-73
2023/06/10 05:00:18;;;;;;;;;;;18.50;99.90;;;;;;5034896;28;20392;-73
2023/06/10 05:02:49;;;;;;;;;;;18.60;99.90;;;;;;5029236;28;19921;-74
2023/06/10 05:05:17;;;;;;;;;;;18.80;99.90;;;;;;5032222;28;19921;-74
2023/06/10 05:07:44;;;;;;;;;;;18.90;99.90;;;;;;5030926;28;19929;-74
2023/06/10 05:10:11;;;;;;;;;;;19.00;99.90;;;;;;5034789;28;19921;-73
2023/06/10 05:12:39;;;;;;;;;;;19.00;99.90;;;;;;5052280;28;19928;-73
2023/06/10 05:15:06;;;;;;;;;;;19.30;99.90;;;;;;5040827;28;20016;-73
2023/06/10 05:17:33;;;;;;;;;;;19.20;99.90;;;;;;5048783;28;19933;-73
2023/06/10 05:20:00;;;;;;;;;;;19.30;99.90;;;;;;5045616;28;19925;-74
2023/06/10 05:22:28;;;;;;;;;;;19.40;99.90;;;;;;5061020;28;19921;-75
2023/06/10 05:24:55;;;;;;;;;;;19.50;99.90;;;;;;5044731;28;20437;-74
2023/06/10 05:27:22;;;;;;;;;;;19.80;99.90;;;;;;5037239;28;19928;-74
2023/06/10 05:29:49;;;;;;;;;;;19.70;99.90;;;;;;5031534;28;19921;-74
2023/06/10 05:32:16;;;;;;;;;;;19.80;99.90;;;;;;5056373;28;20291;-73
2023/06/10 05:34:42;;;;;;;;;;;20.30;99.90;;;;;;5035021;28;19928;-75
2023/06/10 05:37:09;;;;;;;;;;;20.20;99.90;;;;;;5053301;28;20322;-74
2023/06/10 05:39:38;;;;;;;;;;;20.30;99.90;;;;;;5031018;28;19921;-74
2023/06/10 05:42:06;;;;;;;;;;;20.20;99.90;;;;;;5034766;28;19971;-76
2023/06/10 05:44:33;;;;;;;;;;;20.60;99.90;;;;;;5047319;28;19920;-74
2023/06/10 05:47:00;;;;;;;;;;;20.40;99.90;;;;;;5031605;28;19971;-75
2023/06/10 05:49:26;;;;;;;;;;;20.50;99.90;;;;;;5050585;28;20359;-74
2023/06/10 05:51:53;;;;;;;;;;;20.60;99.90;;;;;;5034928;28;20463;-73
2023/06/10 05:54:20;;;;;;;;;;;20.70;99.90;;;;;;5056515;28;19928;-74
2023/06/10 05:56:48;;;;;;;;;;;21.10;99.90;;;;;;5036810;28;19928;-74
2023/06/10 05:59:15;;;;;;;;;;;20.90;99.90;;;;;;5034990;28;19922;-74
2023/06/10 06:01:42;;;;;;;;;;;21.10;99.90;;;;;;5031580;28;19928;-74
2023/06/10 06:04:08;;;;;;;;;;;21.20;99.90;;;;;;5031146;28;19921;-74
2023/06/10 06:06:36;;;;;;;;;;;21.30;99.90;;;;;;5039753;28;19921;-74
2023/06/10 06:09:02;;;;;;;;;;;21.40;99.90;;;;;;5028220;28;19929;-74
2023/06/10 06:11:29;;;;;;;;;;;21.60;99.90;;;;;;5032586;28;20407;-74
2023/06/10 06:13:57;;;;;;;;;;;21.60;99.90;;;;;;5035590;28;20384;-74
2023/06/10 06:16:24;;;;;;;;;;;21.60;99.90;;;;;;5034805;28;19925;-75
2023/06/10 06:18:51;;;;;;;;;;;21.70;99.90;;;;;;5035147;28;19955;-75
2023/06/10 06:21:18;;;;;;;;;;;21.80;99.90;;;;;;5037470;28;19944;-74
2023/06/10 06:23:45;;;;;;;;;;;21.60;99.90;;;;;;5040534;28;19932;-75
2023/06/10 06:26:11;;;;;;;;;;;22.00;99.90;;;;;;5036848;28;19925;-75
2023/06/10 06:28:38;;;;;;;;;;;22.00;99.90;;;;;;5033609;28;19943;-75
2023/06/10 06:31:07;;;;;;;;;;;22.10;99.90;;;;;;5031402;28;19927;-74
2023/06/10 06:33:34;;;;;;;;;;;22.20;99.90;;;;;;5051233;28;19929;-75
2023/06/10 06:36:02;;;;;;;;;;;22.20;99.90;;;;;;5032671;28;19975;-75
2023/06/10 06:38:28;;;;;;;;;;;22.30;99.90;;;;;;5030243;28;19925;-75
2023/06/10 06:40:55;;;;;;;;;;;22.40;99.90;;;;;;5030565;28;19921;-74
2023/06/10 06:43:22;;;;;;;;;;;22.50;99.90;;;;;;5030681;28;19921;-75
2023/06/10 06:46:09;;;;;;;;;;;22.50;99.90;;;;;;5032089;28;19958;-75
2023/06/10 06:48:35;;;;;;;;;;;22.70;99.90;;;;;;5034293;28;19932;-74
2023/06/10 06:51:02;;;;;;;;;;;22.70;99.90;;;;;;5042359;28;19925;-77
2023/06/10 06:53:29;;;;;;;;;;;22.80;99.90;;;;;;5034930;28;19926;-75
2023/06/10 06:55:56;;;;;;;;;;;22.80;99.90;;;;;;5039015;28;20327;-75
2023/06/10 06:58:22;;;;;;;;;;;22.90;99.90;;;;;;5032125;28;19932;-75
2023/06/10 07:00:50;;;;;;;;;;;22.80;99.90;;;;;;5044090;28;19933;-77
2023/06/10 07:03:18;;;;;;;;;;;22.90;99.90;;;;;;5048363;28;19925;-76
2023/06/10 07:05:45;;;;;;;;;;;22.90;99.90;;;;;;5025125;28;19936;-75
2023/06/10 07:08:12;;;;;;;;;;;23.00;99.90;;;;;;5027912;28;19932;-75
2023/06/10 07:10:38;;;;;;;;;;;23.10;99.90;;;;;;5032777;28;19925;-76
2023/06/10 07:13:05;;;;;;;;;;;23.10;99.90;;;;;;5033658;28;19975;-76
2023/06/10 07:15:33;;;;;;;;;;;23.10;99.90;;;;;;5032890;28;19955;-75
2023/06/10 07:18:00;;;;;;;;;;;23.20;99.90;;;;;;5039674;28;20435;-75
2023/06/10 07:20:28;;;;;;;;;;;23.30;99.90;;;;;;5030432;28;19925;-75
2023/06/10 07:22:55;;;;;;;;;;;23.20;99.90;;;;;;5042666;28;20292;-75
2023/06/10 07:25:22;;;;;;;;;;;23.30;99.90;;;;;;5032600;28;19926;-75
2023/06/10 07:27:48;;;;;;;;;;;23.30;99.90;;;;;;5054827;28;19932;-75
2023/06/10 07:30:15;;;;;;;;;;;23.30;99.90;;;;;;5035602;28;19932;-75
2023/06/10 07:32:43;;;;;;;;;;;23.40;99.90;;;;;;5034150;28;19925;-76
2023/06/10 07:35:11;;;;;;;;;;;23.50;99.90;;;;;;5032056;28;19952;-75
2023/06/10 07:37:39;;;;;;;;;;;23.40;99.90;;;;;;5041820;28;19969;-75
2023/06/10 07:40:06;;;;;;;;;;;23.40;99.90;;;;;;5035779;28;19925;-75
2023/06/10 07:42:33;;;;;;;;;;;23.50;99.90;;;;;;5053206;28;19925;-75
2023/06/10 07:45:00;;;;;;;;;;;23.50;99.90;;;;;;5044150;28;20312;-75
2023/06/10 07:47:27;;;;;;;;;;;23.60;99.90;;;;;;5041802;28;19925;-74
2023/06/10 07:49:54;;;;;;;;;;;23.60;99.90;;;;;;5036704;28;19982;-75
2023/06/10 07:52:20;;;;;;;;;;;23.60;99.90;;;;;;5033409;28;19925;-76
2023/06/10 07:54:49;;;;;;;;;;;23.70;99.90;;;;;;5040512;28;19933;-76
2023/06/10 07:57:16;;;;;;;;;;;23.80;99.90;;;;;;5037569;28;19937;-77
2023/06/10 07:59:44;;;;;;;;;;;23.90;99.90;;;;;;5036952;28;19925;-76
2023/06/10 08:02:10;;;;;;;;;;;24.00;99.90;;;;;;5033601;28;19971;-77
2023/06/10 08:04:37;;;;;;;;;;;24.20;99.90;;;;;;5046666;28;19926;-76
2023/06/10 08:07:04;;;;;;;;;;;24.30;99.90;;;;;;5049770;28;19929;-76
2023/06/10 08:09:31;;;;;;;;;;;24.40;99.90;;;;;;5035127;28;19925;-76
2023/06/10 08:11:59;;;;;;;;;;;24.50;99.90;;;;;;5037713;28;19953;-75
2023/06/10 08:14:26;;;;;;;;;;;24.50;99.90;;;;;;5037592;28;19937;-74
2023/06/10 08:16:53;;;;;;;;;;;24.50;99.90;;;;;;5040912;28;19944;-75
2023/06/10 08:19:20;;;;;;;;;;;24.70;99.90;;;;;;5037857;28;19947;-76
2023/06/10 08:21:46;;;;;;;;;;;24.70;99.90;;;;;;5027636;28;20424;-74
2023/06/10 08:24:16;;;;;;;;;;;24.80;99.90;;;;;;5038016;28;19925;-76
2023/06/10 08:26:42;;;;;;;;;;;24.90;99.90;;;;;;5038116;28;19931;-75
2023/06/10 08:29:12;;;;;;;;;;;25.00;99.90;;;;;;5039792;28;19932;-74
2023/06/10 08:31:42;;;;;;;;;;;25.10;99.90;;;;;;5038982;28;20328;-75
2023/06/10 08:34:08;;;;;;;;;;;25.20;99.90;;;;;;5032209;28;20398;-73
2023/06/10 08:36:35;;;;;;;;;;;25.30;99.90;;;;;;5049233;28;19933;-74
2023/06/10 08:39:02;;;;;;;;;;;25.40;99.90;;;;;;5033577;28;20366;-75
2023/06/10 08:41:30;;;;;;;;;;;25.40;99.90;;;;;;5055895;28;19940;-75
2023/06/10 08:44:00;;;;;;;;;;;25.50;99.90;;;;;;5043054;28;19924;-74
2023/06/10 08:46:30;;;;;;;;;;;25.50;99.90;;;;;;5033451;28;20036;-75
2023/06/10 08:48:59;;;;;;;;;;;25.60;99.90;;;;;;5038398;28;19924;-76
2023/06/10 08:51:27;;;;;;;;;;;25.70;99.90;;;;;;5037587;28;19929;-75
2023/06/10 08:53:57;;;;;;;;;;;25.80;99.90;;;;;;5031525;28;19932;-76
2023/06/10 08:56:26;;;;;;;;;;;25.90;99.90;;;;;;5036974;28;19925;-75
2023/06/10 08:58:53;;;;;;;;;;;26.00;99.90;;;;;;5033380;28;19925;-75
2023/06/10 09:01:20;;;;;;;;;;;26.10;99.90;;;;;;5039810;28;19925;-75
2023/06/10 09:03:49;;;;;;;;;;;26.10;99.90;;;;;;5038357;28;19925;-75
2023/06/10 09:06:16;;;;;;;;;;;26.20;99.90;;;;;;5039316;28;19925;-77
2023/06/10 09:08:44;;;;;;;;;;;26.30;99.90;;;;;;5036242;28;19925;-76
2023/06/10 09:11:10;;;;;;;;;;;26.40;99.90;;;;;;5026740;28;19932;-75
2023/06/10 09:13:37;;;;;;;;;;;26.50;99.90;;;;;;5037275;28;19933;-76
2023/06/10 09:16:04;;;;;;;;;;;26.60;99.90;;;;;;5040172;28;19925;-75
2023/06/10 09:18:31;;;;;;;;;;;26.70;99.90;;;;;;5055630;28;19925;-75
2023/06/10 09:21:00;;;;;;;;;;;26.80;99.90;;;;;;5034432;28;19925;-75
2023/06/10 09:23:27;;;;;;;;;;;26.80;99.90;;;;;;5040669;28;19929;-76
2023/06/10 09:25:57;;;;;;;;;;;27.00;99.90;;;;;;5038104;28;20393;-77
2023/06/10 09:28:24;;;;;;;;;;;27.00;99.90;;;;;;5040173;28;19925;-75
2023/06/10 09:31:02;;;;;;;;;;;27.00;99.90;;;;;;5038193;28;19924;-75
2023/06/10 09:33:29;;;;;;;;;;;27.10;99.90;;;;;;5040908;28;19932;-75
2023/06/10 09:36:00;;;;;;;;;;;27.10;99.90;;;;;;5036931;28;20112;-75
2023/06/10 09:38:32;;;;;;;;;;;27.10;99.90;;;;;;5039893;28;19932;-76
2023/06/10 09:41:00;;;;;;;;;;;27.10;99.90;;;;;;5043175;28;19928;-76
2023/06/10 09:43:39;;;;;;;;;;;27.20;99.90;;;;;;5040843;28;20016;-75
2023/06/10 09:46:06;;;;;;;;;;;27.30;99.90;;;;;;5043182;28;20380;-75
2023/06/10 09:48:35;;;;;;;;;;;27.50;99.90;;;;;;5040769;28;19925;-76
2023/06/10 09:51:02;;;;;;;;;;;27.60;99.90;;;;;;5034608;28;20313;-75
2023/06/10 09:53:30;;;;;;;;;;;27.70;99.90;;;;;;5041944;28;20027;-75
2023/06/10 09:55:59;;;;;;;;;;;27.70;99.90;;;;;;5037728;28;19926;-76
2023/06/10 09:58:34;;;;;;;;;;;27.80;99.90;;;;;;5030990;28;19939;-76
2023/06/10 10:01:05;;;;;;;;;;;27.80;99.90;;;;;;5032287;28;19949;-75
2023/06/10 10:03:32;;;;;;;;;;;28.00;99.90;;;;;;5044625;28;19936;-77
2023/06/10 10:05:59;;;;;;;;;;;28.10;99.90;;;;;;5045131;28;19928;-75
2023/06/10 10:08:26;;;;;;;;;;;28.20;99.90;;;;;;5043126;28;19974;-75
2023/06/10 10:10:53;;;;;;;;;;;28.30;99.90;;;;;;5044372;28;20383;-75
2023/06/10 10:13:21;;;;;;;;;;;28.50;99.90;;;;;;5039336;28;19931;-75
2023/06/10 10:15:49;;;;;;;;;;;28.60;99.90;;;;;;5040307;28;19932;-76
2023/06/10 10:18:18;;;;;;;;;;;28.70;99.90;;;;;;5033900;28;19924;-75
2023/06/10 10:20:47;;;;;;;;;;;28.80;99.90;;;;;;5033741;28;19932;-75
2023/06/10 10:23:15;;;;;;;;;;;28.90;99.90;;;;;;5037684;28;19932;-74
2023/06/10 10:25:43;;;;;;;;;;;28.90;99.90;;;;;;5060961;28;20285;-73
2023/06/10 10:28:11;;;;;;;;;;;28.90;99.90;;;;;;5037428;28;19933;-74
2023/06/10 10:30:41;;;;;;;;;;;29.00;99.90;;;;;;5030610;28;19925;-74
2023/06/10 10:33:10;;;;;;;;;;;29.10;99.90;;;;;;5026785;28;19929;-73
2023/06/10 10:35:38;;;;;;;;;;;29.10;99.90;;;;;;5037668;28;20032;-74
2023/06/10 10:38:06;;;;;;;;;;;29.20;99.90;;;;;;5032479;28;20311;-76
2023/06/10 10:40:33;;;;;;;;;;;29.40;99.90;;;;;;5038226;28;19964;-72
2023/06/10 10:43:00;;;;;;;;;;;29.50;99.90;;;;;;5042603;28;19928;-74
2023/06/10 10:45:29;;;;;;;;;;;29.70;99.90;;;;;;5035150;28;19929;-74
2023/06/10 10:47:57;;;;;;;;;;;29.90;99.90;;;;;;5035290;28;20406;-75
2023/06/10 10:50:24;;;;;;;;;;;30.00;99.90;;;;;;5027652;28;19928;-74
2023/06/10 10:52:55;;;;;;;;;;;30.00;99.90;;;;;;5039171;28;19929;-75
2023/06/10 10:55:22;;;;;;;;;;;30.00;99.90;;;;;;5037815;28;19925;-75
2023/06/10 10:57:59;;;;;;;;;;;30.10;99.90;;;;;;5054294;28;20015;-75
2023/06/10 11:00:30;;;;;;;;;;;30.20;99.90;;;;;;5062367;28;19932;-74
2023/06/10 11:03:06;;;;;;;;;;;30.30;99.90;;;;;;5042677;28;20380;-75
2023/06/10 11:05:36;;;;;;;;;;;30.40;99.90;;;;;;5045057;28;19933;-75
2023/06/10 11:08:03;;;;;;;;;;;30.50;99.90;;;;;;5039277;28;20388;-75
2023/06/10 11:10:31;;;;;;;;;;;30.60;99.90;;;;;;5036189;28;19926;-74
2023/06/10 11:12:58;;;;;;;;;;;30.60;99.90;;;;;;5043630;28;19933;-75
2023/06/10 11:15:25;;;;;;;;;;;30.70;99.90;;;;;;5043083;28;19929;-75
2023/06/10 11:18:13;;;;;;;;;;;30.90;99.90;;;;;;5040851;28;19925;-76
2023/06/10 11:20:52;;;;;;;;;;;31.00;99.90;;;;;;5039690;28;19925;-75
2023/06/10 11:23:33;;;;;;;;;;;31.10;99.90;;;;;;5031847;28;19931;-76
2023/06/10 11:26:10;;;;;;;;;;;31.30;99.90;;;;;;5029949;28;19968;-75
2023/06/10 11:28:37;;;;;;;;;;;31.60;99.90;;;;;;5049312;28;20384;-76
2023/06/10 11:31:04;;;;;;;;;;;31.90;99.90;;;;;;5042666;28;19932;-79
2023/06/10 11:33:33;;;;;;;;;;;32.10;99.90;;;;;;5036448;28;19926;-76
2023/06/10 11:36:00;;;;;;;;;;;31.90;99.90;;;;;;5036952;28;19925;-76
2023/06/10 11:38:27;;;;;;;;;;;32.30;99.90;;;;;;5061753;28;19929;-76
2023/06/10 11:40:54;;;;;;;;;;;33.30;99.90;;;;;;5043407;28;19925;-76
2023/06/10 11:43:21;;;;;;;;;;;34.40;99.90;;;;;;5038214;28;19925;-76
2023/06/10 11:45:48;;;;;;;;;;;35.20;99.90;;;;;;5038509;28;19929;-76
2023/06/10 11:48:14;;;;;;;;;;;36.30;99.90;;;;;;5044042;28;19959;-74
2023/06/10 11:50:43;;;;;;;;;;;37.20;99.90;;;;;;5036588;28;19925;-75
2023/06/10 11:53:09;;;;;;;;;;;38.00;99.90;;;;;;5041810;28;19932;-74
2023/06/10 11:55:43;;;;;;;;;;;38.50;99.90;;;;;;5035042;28;19925;-75
2023/06/10 11:58:13;;;;;;;;;;;39.00;99.90;;;;;;5043789;28;19925;-75
2023/06/10 12:00:44;;;;;;;;;;;39.50;99.90;;;;;;5038918;28;19925;-76
2023/06/10 12:03:11;;;;;;;;;;;40.10;99.90;;;;;;5042261;28;20392;-79
2023/06/10 12:05:38;;;;;;;;;;;40.10;99.90;;;;;;5044951;28;20311;-78
2023/06/10 12:08:13;;;;;;;;;;;39.30;99.90;;;;;;5041729;28;19932;-78
2023/06/10 12:10:40;;;;;;;;;;;39.70;99.90;;;;;;5056741;28;19925;-75
2023/06/10 12:13:07;;;;;;;;;;;40.10;99.90;;;;;;5039431;28;19925;-74
2023/06/10 12:15:34;;;;;;;;;;;40.00;99.90;;;;;;5037322;28;19931;-74
2023/06/10 12:18:02;;;;;;;;;;;40.30;99.90;;;;;;5039553;28;19925;-74
2023/06/10 12:20:29;;;;;;;;;;;40.70;99.90;;;;;;5063080;28;19925;-75
2023/06/10 12:22:56;;;;;;;;;;;40.80;99.90;;;;;;5037155;28;19925;-74
2023/06/10 12:25:27;;;;;;;;;;;40.90;99.90;;;;;;5034372;28;19925;-74
2023/06/10 12:27:55;;;;;;;;;;;41.10;99.90;;;;;;5041951;28;19974;-75
2023/06/10 12:30:22;;;;;;;;;;;41.20;99.90;;;;;;5056278;28;19925;-75
2023/06/10 12:32:49;;;;;;;;;;;41.40;99.90;;;;;;5039651;28;19933;-74
2023/06/10 12:35:17;;;;;;;;;;;40.30;99.90;;;;;;5043636;28;20284;-75
2023/06/10 12:37:55;;;;;;;;;;;39.60;99.90;;;;;;5044428;28;20455;-75
2023/06/10 12:40:27;;;;;;;;;;;38.90;99.90;;;;;;5037268;28;19925;-74
2023/06/10 12:42:55;;;;;;;;;;;38.50;99.90;;;;;;5040850;28;20453;-75
2023/06/10 12:45:28;;;;;;;;;;;37.80;99.90;;;;;;5060068;28;19932;-75
2023/06/10 12:48:04;;;;;;;;;;;38.20;99.90;;;;;;5044080;28;19925;-75
2023/06/10 12:50:31;;;;;;;;;;;38.70;99.90;;;;;;5041641;28;19932;-75
2023/06/10 12:52:58;;;;;;;;;;;39.10;99.90;;;;;;5044776;28;19974;-75
2023/06/10 12:55:25;;;;;;;;;;;40.00;99.90;;;;;;5042392;28;19924;-75
2023/06/10 12:57:53;;;;;;;;;;;39.90;99.90;;;;;;5043860;28;19925;-76
2023/06/10 13:00:20;;;;;;;;;;;39.40;99.90;;;;;;5042963;28;19932;-75
2023/06/10 13:02:47;;;;;;;;;;;37.90;99.90;;;;;;5043220;28;20364;-76
2023/06/10 13:05:14;;;;;;;;;;;36.80;99.90;;;;;;5040293;28;19925;-76
2023/06/10 13:07:41;;;;;;;;;;;35.20;99.90;;;;;;5044019;28;19925;-76
2023/06/10 13:10:08;;;;;;;;;;;34.10;99.90;;;;;;5043990;28;19924;-76
2023/06/10 13:12:36;;;;;;;;;;;33.50;99.90;;;;;;5051596;28;19932;-75
2023/06/10 13:15:05;;;;;;;;;;;33.10;99.90;;;;;;5038241;28;19926;-76
2023/06/10 13:17:33;;;;;;;;;;;33.30;99.90;;;;;;5041058;28;19924;-76
2023/06/10 13:20:00;;;;;;;;;;;34.50;99.90;;;;;;5045295;28;19925;-76
2023/06/10 13:22:28;;;;;;;;;;;36.30;99.90;;;;;;5041704;28;19935;-75
2023/06/10 13:24:55;;;;;;;;;;;36.60;99.90;;;;;;5038081;28;20410;-76
2023/06/10 13:27:22;;;;;;;;;;;36.40;99.90;;;;;;5041935;28;19932;-74
2023/06/10 13:29:48;;;;;;;;;;;36.20;99.90;;;;;;5045084;28;19925;-75
2023/06/10 13:32:17;;;;;;;;;;;36.30;99.90;;;;;;5040537;28;19925;-74
2023/06/10 13:34:44;;;;;;;;;;;35.70;99.90;;;;;;5039758;28;19941;-74
2023/06/10 13:37:12;;;;;;;;;;;35.40;99.90;;;;;;5040410;28;19925;-75
2023/06/10 13:39:41;;;;;;;;;;;35.90;99.90;;;;;;5035152;28;20186;-76
2023/06/10 13:42:08;;;;;;;;;;;36.80;99.90;;;;;;5041386;28;19932;-74
2023/06/10 13:44:36;;;;;;;;;;;38.30;99.90;;;;;;5051700;28;19928;-76
2023/06/10 13:47:03;;;;;;;;;;;39.80;99.90;;;;;;5044315;28;19933;-75
2023/06/10 13:49:31;;;;;;;;;;;39.90;99.90;;;;;;5039805;28;20445;-76
2023/06/10 13:51:58;;;;;;;;;;;39.20;99.90;;;;;;5048854;28;19925;-76
2023/06/10 13:54:25;;;;;;;;;;;38.30;99.90;;;;;;5056429;28;19932;-76
2023/06/10 13:56:52;;;;;;;;;;;37.30;99.90;;;;;;5043162;28;20031;-76
2023/06/10 13:59:19;;;;;;;;;;;36.50;99.90;;;;;;5043687;28;20023;-76
2023/06/10 14:01:46;;;;;;;;;;;35.70;99.90;;;;;;5045392;28;20416;-76
2023/06/10 14:04:13;;;;;;;;;;;35.00;99.90;;;;;;5041284;28;19925;-76
2023/06/10 14:06:42;;;;;;;;;;;34.70;99.90;;;;;;5044976;28;19952;-75
2023/06/10 14:09:09;;;;;;;;;;;34.20;99.90;;;;;;5033552;28;20020;-75
2023/06/10 14:11:36;;;;;;;;;;;33.90;99.90;;;;;;5036540;28;19929;-75
2023/06/10 14:14:02;;;;;;;;;;;33.50;99.90;;;;;;5034013;28;19925;-75
2023/06/10 14:16:29;;;;;;;;;;;33.30;99.90;;;;;;5043583;28;19936;-75
2023/06/10 14:18:56;;;;;;;;;;;33.10;99.90;;;;;;5032041;28;19940;-75
2023/06/10 14:21:23;;;;;;;;;;;33.20;99.90;;;;;;5035371;28;20444;-75